createdAt,value
2023-10-12T03:32:00.054Z,97024.66
2023-10-12T03:34:37.388Z,97020.72
2023-10-12T03:37:05.747Z,97030.25
2023-10-12T03:39:44.549Z,97025.69
2023-10-12T03:42:31.685Z,97017.53
2023-10-12T03:45:09.698Z,97019.16
2023-10-12T03:47:55.675Z,97008.38
2023-10-12T03:50:23.197Z,97016.97
2023-10-12T03:52:53.559Z,97016.81
2023-10-12T03:55:27.338Z,97012.53
2023-10-12T03:58:07.676Z,97010.94
2023-10-12T04:00:42.833Z,97016.84
2023-10-12T04:03:20.150Z,97013.22
2023-10-12T04:05:51.871Z,97013.91
2023-10-12T04:08:27.812Z,97009.31
2023-10-12T04:11:00.897Z,97016.84
2023-10-12T04:13:28.088Z,97014.97
2023-10-12T04:16:14.349Z,97018.88
2023-10-12T04:18:50.562Z,97013.31
2023-10-12T04:21:27.602Z,97013.56
2023-10-12T04:24:09.549Z,97018.59
2023-10-12T04:26:36.714Z,97020.75
2023-10-12T04:29:11.649Z,97011.31
2023-10-12T04:31:58.613Z,97016.13
2023-10-12T04:34:28.548Z,97016.03
2023-10-12T04:37:13.474Z,97017.63
2023-10-12T04:39:50.186Z,97025.78
2023-10-12T04:42:25.297Z,97021.47
2023-10-12T04:45:15.644Z,97025.88
2023-10-12T04:47:47.154Z,97016.25
2023-10-12T04:50:28.457Z,97021.72
2023-10-12T04:53:13.112Z,97018.75
2023-10-12T04:55:48.285Z,97016.72
2023-10-12T04:58:32.748Z,97018.00
2023-10-12T05:01:21.057Z,97022.50
2023-10-12T05:04:09.274Z,97021.19
2023-10-12T05:06:48.018Z,97025.94
2023-10-12T05:09:19.521Z,97021.72
2023-10-12T05:11:48.064Z,97015.78
2023-10-12T05:14:15.767Z,97018.50
2023-10-12T05:16:46.969Z,97018.66
2023-10-12T05:19:14.401Z,97015.44
2023-10-12T05:21:41.659Z,97012.75
2023-10-12T05:24:10.039Z,97016.94
2023-10-12T05:26:38.434Z,97018.00
2023-10-12T05:29:24.543Z,97024.97
2023-10-12T05:32:21.278Z,97026.19
2023-10-12T05:34:49.324Z,97034.66
2023-10-12T05:37:25.951Z,97029.84
2023-10-12T05:39:53.000Z,97040.41
2023-10-12T05:42:26.375Z,97038.22
2023-10-12T05:44:54.797Z,97039.06
2023-10-12T05:47:30.592Z,97047.53
2023-10-12T05:50:00.903Z,97050.69
2023-10-12T05:52:27.996Z,97060.72
2023-10-12T05:55:01.213Z,97059.38
2023-10-12T05:57:31.756Z,97065.81
2023-10-12T06:00:01.995Z,97069.81
2023-10-12T06:02:30.406Z,97070.44
2023-10-12T06:04:58.537Z,97070.78
2023-10-12T06:07:25.698Z,97081.66
2023-10-12T06:09:54.651Z,97083.13
2023-10-12T06:12:26.106Z,97085.34
2023-10-12T06:14:57.180Z,97096.88
2023-10-12T06:17:32.106Z,97096.72
2023-10-12T06:20:15.228Z,97089.88
2023-10-12T06:22:42.384Z,97085.13
2023-10-12T06:25:12.665Z,97091.66
2023-10-12T06:27:40.037Z,97094.28
2023-10-12T06:30:18.894Z,97091.19
2023-10-12T06:32:48.273Z,97099.41
2023-10-12T06:35:35.987Z,97103.91
2023-10-12T06:38:23.960Z,97098.63
2023-10-12T06:41:02.078Z,97099.06
2023-10-12T06:43:29.481Z,97101.09
2023-10-12T06:45:58.298Z,97100.41
2023-10-12T06:48:31.860Z,97111.41
2023-10-12T06:51:06.037Z,97101.19
2023-10-12T06:53:37.899Z,97114.22
2023-10-12T06:56:16.322Z,97117.72
2023-10-12T06:58:45.414Z,97118.72
2023-10-12T07:01:39.277Z,97116.38
2023-10-12T07:04:39.445Z,97117.38
2023-10-12T07:07:13.294Z,97109.97
2023-10-12T07:09:41.475Z,97120.16
2023-10-12T07:12:13.342Z,97118.59
2023-10-12T07:14:56.984Z,97131.50
2023-10-12T07:17:33.787Z,97128.44
2023-10-12T07:20:00.913Z,97127.94
2023-10-12T07:22:29.064Z,97133.53
2023-10-12T07:24:58.556Z,97137.63
2023-10-12T07:27:25.914Z,97140.38
2023-10-12T07:30:09.834Z,97141.28
2023-10-12T07:32:40.446Z,97143.88
2023-10-12T07:35:21.378Z,97147.66
2023-10-12T07:37:48.539Z,97134.69
2023-10-12T07:40:24.243Z,97135.63
2023-10-12T07:42:51.711Z,97142.72
2023-10-12T07:45:19.500Z,97132.28
2023-10-12T07:48:00.931Z,97136.44
2023-10-12T07:50:29.864Z,97131.81
2023-10-12T07:53:31.167Z,97127.72
2023-10-12T07:56:01.894Z,97125.16
2023-10-12T07:58:35.163Z,97128.94
2023-10-12T08:01:21.218Z,97145.41
2023-10-12T08:04:00.061Z,97145.78
2023-10-12T08:06:37.060Z,97138.06
2023-10-12T08:09:06.701Z,97145.53
2023-10-12T08:11:36.692Z,97139.88
2023-10-12T08:14:22.513Z,97136.34
2023-10-12T08:17:08.272Z,97146.66
2023-10-12T08:19:43.413Z,97144.53
2023-10-12T08:22:18.794Z,97143.94
2023-10-12T08:24:47.569Z,97138.25
2023-10-12T08:27:19.944Z,97140.31
2023-10-12T08:29:46.996Z,97148.59
2023-10-12T08:32:17.135Z,97147.91
2023-10-12T08:35:05.089Z,97146.81
2023-10-12T08:37:40.376Z,97140.09
2023-10-12T08:40:20.561Z,97143.72
2023-10-12T08:42:59.335Z,97151.91
2023-10-12T08:45:28.074Z,97145.72
2023-10-12T08:47:56.512Z,97137.63
2023-10-12T08:50:42.121Z,97132.13
2023-10-12T08:53:09.251Z,97133.97
2023-10-12T08:55:37.850Z,97130.59
2023-10-12T08:58:40.258Z,97134.16
2023-10-12T09:01:11.967Z,97127.94
2023-10-12T09:03:50.507Z,97133.53
2023-10-12T09:06:35.879Z,97126.50
2023-10-12T09:09:04.572Z,97133.94
2023-10-12T09:11:35.024Z,97127.34
2023-10-12T09:14:02.479Z,97121.38
2023-10-12T09:16:29.866Z,97114.84
2023-10-12T09:19:01.105Z,97128.09
2023-10-12T09:21:40.668Z,97126.16
2023-10-12T09:24:16.251Z,97130.09
2023-10-12T09:26:58.539Z,97129.81
2023-10-12T09:29:28.872Z,97135.47
2023-10-12T09:32:17.371Z,97128.63
2023-10-12T09:35:04.750Z,97126.56
2023-10-12T09:37:45.129Z,97132.19
2023-10-12T09:40:36.747Z,97134.56
2023-10-12T09:43:18.325Z,97128.09
2023-10-12T09:45:49.111Z,97128.00
2023-10-12T09:48:20.647Z,97128.94
2023-10-12T09:50:50.450Z,97128.88
2023-10-12T09:53:25.417Z,97128.53
2023-10-12T09:56:13.668Z,97127.03
2023-10-12T09:58:55.257Z,97131.75
2023-10-12T10:01:40.941Z,97126.59
2023-10-12T10:04:26.461Z,97128.97
2023-10-12T10:07:10.476Z,97131.28
2023-10-12T10:09:39.347Z,97139.22
2023-10-12T10:12:09.760Z,97139.84
2023-10-12T10:14:37.931Z,97144.63
2023-10-12T10:17:10.963Z,97153.06
2023-10-12T10:19:38.143Z,97143.44
2023-10-12T10:22:06.310Z,97146.63
2023-10-12T10:24:45.186Z,97135.16
2023-10-12T10:27:15.875Z,97133.91
2023-10-12T10:29:54.657Z,97138.94
2023-10-12T10:32:31.288Z,97147.06
2023-10-12T10:35:00.090Z,97138.69
2023-10-12T10:37:58.989Z,97129.13
2023-10-12T10:40:49.541Z,97130.72
2023-10-12T10:43:17.263Z,97117.53
2023-10-12T10:45:55.424Z,97115.03
2023-10-12T10:48:51.470Z,97105.38
2023-10-12T10:51:21.977Z,97113.53
2023-10-12T10:53:56.168Z,97109.69
2023-10-12T10:56:37.841Z,97104.00
2023-10-12T10:59:08.490Z,97099.13
2023-10-12T11:01:35.933Z,97101.16
2023-10-12T11:04:09.358Z,97101.34
2023-10-12T11:06:38.451Z,97097.22
2023-10-12T11:09:09.030Z,97094.06
2023-10-12T11:11:39.233Z,97090.03
2023-10-12T11:14:09.890Z,97086.03
2023-10-12T11:16:38.439Z,97088.09
2023-10-12T11:19:10.200Z,97083.50
2023-10-12T11:21:37.442Z,97086.81
2023-10-12T11:24:05.436Z,97088.34
2023-10-12T11:26:40.922Z,97079.88
2023-10-12T11:29:08.435Z,97082.78
2023-10-12T11:31:35.670Z,97083.63
2023-10-12T11:34:13.198Z,97080.97
2023-10-12T11:36:40.451Z,97075.06
2023-10-12T11:39:22.389Z,97076.66
2023-10-12T11:42:08.805Z,97080.34
2023-10-12T11:44:37.333Z,97084.88
2023-10-12T11:47:08.745Z,97085.00
2023-10-12T11:49:57.358Z,97083.59
2023-10-12T11:52:34.560Z,97081.13
2023-10-12T11:55:08.661Z,97078.31
2023-10-12T11:57:41.963Z,97072.16
2023-10-12T12:00:30.779Z,97077.69
2023-10-12T12:03:01.342Z,97077.22
2023-10-12T12:05:32.579Z,97082.50
2023-10-12T12:08:02.131Z,97077.78
2023-10-12T12:10:55.543Z,97079.13
2023-10-12T12:13:22.869Z,97071.53
2023-10-12T12:15:53.631Z,97072.50
2023-10-12T12:18:21.846Z,97075.09
2023-10-12T12:20:58.922Z,97077.63
2023-10-12T12:23:34.241Z,97077.75
2023-10-12T12:26:06.287Z,97064.03
2023-10-12T12:28:33.674Z,97067.78
2023-10-12T12:31:06.200Z,97063.47
2023-10-12T12:33:33.361Z,97068.03
2023-10-12T12:36:08.918Z,97058.84
2023-10-12T12:38:46.110Z,97059.47
2023-10-12T12:41:25.100Z,97050.88
2023-10-12T12:43:53.493Z,97053.09
2023-10-12T12:46:21.070Z,97052.50
2023-10-12T12:48:50.568Z,97051.88
2023-10-12T12:51:18.569Z,97049.06
2023-10-12T12:53:49.755Z,97046.09
2023-10-12T12:56:20.378Z,97046.47
2023-10-12T12:58:49.386Z,97045.09
2023-10-12T13:01:18.324Z,97041.50
2023-10-12T13:03:46.563Z,97039.63
2023-10-12T13:06:16.352Z,97044.88
2023-10-12T13:08:43.628Z,97048.13
2023-10-12T13:11:11.187Z,97047.06
2023-10-12T13:13:40.836Z,97057.16
2023-10-12T13:16:13.831Z,97053.34
2023-10-12T13:18:49.961Z,97057.03
2023-10-12T13:21:17.668Z,97058.50
2023-10-12T13:23:45.511Z,97055.16
2023-10-12T13:26:14.445Z,97051.28
2023-10-12T13:28:43.717Z,97057.28
2023-10-12T13:31:12.234Z,97057.84
2023-10-12T13:33:40.840Z,97063.72
2023-10-12T13:36:09.962Z,97056.31
2023-10-12T13:38:38.453Z,97059.88
2023-10-12T13:41:06.579Z,97067.00
2023-10-12T13:43:36.333Z,97060.97
2023-10-12T13:46:10.118Z,97054.84
2023-10-12T13:48:42.264Z,97054.00
2023-10-12T13:51:10.134Z,97051.38
2023-10-12T13:53:38.055Z,97053.00
2023-10-12T13:56:08.383Z,97058.47
2023-10-12T13:58:42.629Z,97055.22
2023-10-12T14:01:21.997Z,97050.97
2023-10-12T14:04:01.705Z,97052.34
2023-10-12T14:06:31.329Z,97052.28
2023-10-12T14:09:00.116Z,97056.16
2023-10-12T14:11:27.217Z,97052.19
2023-10-12T14:13:54.320Z,97057.59
2023-10-12T14:16:21.457Z,97052.72
2023-10-12T14:18:51.162Z,97047.94
2023-10-12T14:21:19.929Z,97051.53
2023-10-12T14:23:47.502Z,97053.72
2023-10-12T14:26:23.822Z,97054.34
2023-10-12T14:28:55.973Z,97051.50
2023-10-12T14:31:24.248Z,97045.66
2023-10-12T14:33:55.057Z,97047.13
2023-10-12T14:36:25.109Z,97035.75
2023-10-12T14:38:56.097Z,97039.50
2023-10-12T14:41:23.195Z,97038.94
2023-10-12T14:43:50.652Z,97039.09
2023-10-12T14:46:21.589Z,97032.19
2023-10-12T14:48:53.386Z,97023.34
2023-10-12T14:51:30.573Z,97022.63
2023-10-12T14:53:57.913Z,97023.56
2023-10-12T14:56:28.509Z,97019.84
2023-10-12T14:58:59.844Z,97008.06
2023-10-12T15:01:30.390Z,97018.81
2023-10-12T15:03:58.503Z,97019.16
2023-10-12T15:06:25.908Z,97032.84
2023-10-12T15:08:57.100Z,97027.09
2023-10-12T15:11:24.131Z,97026.94
2023-10-12T15:13:53.648Z,97027.72
2023-10-12T15:16:20.684Z,97017.97
2023-10-12T15:18:47.882Z,97010.47
2023-10-12T15:23:45.065Z,96989.53
2023-10-12T15:26:14.744Z,96982.88
2023-10-12T15:28:42.878Z,97001.47
2023-10-12T15:31:10.320Z,97001.19
2023-10-12T15:33:40.337Z,96995.53
2023-10-12T15:36:08.585Z,96991.28
2023-10-12T15:38:35.735Z,96989.72
2023-10-12T15:41:07.442Z,96995.53
2023-10-12T15:43:34.573Z,96990.41
2023-10-12T15:46:08.864Z,96992.97
2023-10-12T15:48:35.985Z,96992.22
2023-10-12T15:51:03.036Z,96992.84
2023-10-12T15:53:30.073Z,96989.16
2023-10-12T15:55:57.147Z,96993.44
2023-10-12T15:58:24.306Z,96994.50
2023-10-12T16:00:54.823Z,97002.34
2023-10-12T16:03:22.977Z,97000.06
2023-10-12T16:05:50.958Z,96997.28
2023-10-12T16:08:19.332Z,97001.63
2023-10-12T16:10:50.340Z,97002.16
2023-10-12T16:13:18.102Z,97004.31
2023-10-12T16:15:45.897Z,97007.69
2023-10-12T16:18:13.644Z,97000.69
2023-10-12T16:20:40.989Z,96994.88
2023-10-12T16:23:08.252Z,97000.56
2023-10-12T16:25:36.041Z,97001.25
2023-10-12T16:28:03.726Z,96998.81
2023-10-12T16:30:36.016Z,97001.50
2023-10-12T16:33:03.746Z,97008.13
2023-10-12T16:35:31.694Z,96999.66
2023-10-12T16:38:01.693Z,97000.78
2023-10-12T16:40:31.833Z,97007.00
2023-10-12T16:42:58.914Z,97005.88
2023-10-12T16:45:27.384Z,97011.34
2023-10-12T16:47:54.505Z,97009.38
2023-10-12T16:50:21.792Z,97010.78
2023-10-12T16:52:51.944Z,97016.53
2023-10-12T16:55:19.669Z,97018.09
2023-10-12T16:57:47.162Z,97014.06
2023-10-12T17:00:18.151Z,97018.53
2023-10-12T17:02:47.591Z,97019.78
2023-10-12T17:05:15.556Z,97007.03
2023-10-12T17:07:46.435Z,97007.13
2023-10-12T17:10:24.836Z,97015.19
2023-10-12T17:12:53.580Z,97003.56
2023-10-12T17:15:21.326Z,97012.66
2023-10-12T17:17:48.849Z,97011.28
2023-10-12T17:20:17.285Z,97015.38
2023-10-12T17:22:44.636Z,97020.63
2023-10-12T17:25:14.060Z,97014.25
2023-10-12T17:27:44.680Z,97017.41
2023-10-12T17:30:12.295Z,97025.78
2023-10-12T17:32:41.187Z,97023.31
2023-10-12T17:35:13.762Z,97020.81
2023-10-12T17:37:41.122Z,97022.28
2023-10-12T17:40:09.461Z,97028.81
2023-10-12T17:42:36.750Z,97022.13
2023-10-12T17:45:10.796Z,97013.88
2023-10-12T17:47:39.902Z,97014.00
2023-10-12T17:50:21.225Z,97014.25
2023-10-12T17:52:48.537Z,97015.06
2023-10-12T17:55:18.608Z,97015.81
2023-10-12T17:57:46.384Z,97014.59
2023-10-12T18:00:14.079Z,97012.31
2023-10-12T18:02:43.043Z,97010.47
2023-10-12T18:05:14.782Z,97003.09
2023-10-12T18:07:44.165Z,97005.94
2023-10-12T18:10:16.757Z,97008.75
2023-10-12T18:12:44.302Z,97012.78
2023-10-12T18:15:13.683Z,97010.16
2023-10-12T18:17:41.203Z,97011.06
2023-10-12T18:20:16.039Z,97007.00
2023-10-12T18:22:43.693Z,97007.84
2023-10-12T18:25:10.848Z,97013.44
2023-10-12T18:27:38.042Z,97014.91
2023-10-12T18:30:06.389Z,97015.84
2023-10-12T18:32:33.629Z,97004.16
2023-10-12T18:35:01.371Z,96993.78
2023-10-12T18:37:28.759Z,97001.34
2023-10-12T18:39:56.537Z,96997.03
2023-10-12T18:42:23.652Z,97005.66
2023-10-12T18:44:50.946Z,97002.50
2023-10-12T18:47:18.067Z,97009.25
2023-10-12T18:49:55.609Z,97002.59
2023-10-12T18:52:27.348Z,97015.28
2023-10-12T18:54:56.604Z,97013.31
2023-10-12T18:57:23.749Z,97012.41
2023-10-12T18:59:50.916Z,97013.56
2023-10-12T19:02:18.084Z,97009.94
2023-10-12T19:04:45.291Z,97017.28
2023-10-12T19:07:12.427Z,97022.38
2023-10-12T19:09:39.622Z,97021.94
2023-10-12T19:12:06.729Z,97026.22
2023-10-12T19:14:35.739Z,97027.25
2023-10-12T19:17:03.064Z,97020.31
2023-10-12T19:19:30.471Z,97027.44
2023-10-12T19:21:57.753Z,97031.34
2023-10-12T19:24:25.371Z,97034.72
2023-10-12T19:26:53.229Z,97026.34
2023-10-12T19:29:20.736Z,97024.13
2023-10-12T19:31:48.221Z,97020.84
2023-10-12T19:34:15.414Z,97022.75
2023-10-12T19:36:42.528Z,97027.94
2023-10-12T19:39:11.914Z,97031.59
2023-10-12T19:41:39.127Z,97025.25
2023-10-12T19:44:07.348Z,97030.09
2023-10-12T19:46:34.818Z,97039.94
2023-10-12T19:49:02.061Z,97033.38
2023-10-12T19:51:30.151Z,97032.59
2023-10-12T19:53:57.340Z,97040.84
2023-10-12T19:56:24.477Z,97039.94
2023-10-12T19:58:57.445Z,97040.28
2023-10-12T20:01:24.977Z,97042.59
2023-10-12T20:03:52.551Z,97049.72
2023-10-12T20:06:20.736Z,97052.16
2023-10-12T20:08:51.008Z,97050.50
2023-10-12T20:11:18.561Z,97044.03
2023-10-12T20:13:48.456Z,97041.13
2023-10-12T20:16:20.359Z,97033.84
2023-10-12T20:18:47.640Z,97037.97
2023-10-12T20:21:17.702Z,97045.19
2023-10-12T20:23:46.476Z,97045.69
2023-10-12T20:26:13.931Z,97053.81
2023-10-12T20:28:41.892Z,97059.59
2023-10-12T20:31:11.484Z,97051.06
2023-10-12T20:33:39.007Z,97059.09
2023-10-12T20:36:06.266Z,97064.16
2023-10-12T20:38:36.228Z,97073.03
2023-10-12T20:41:05.501Z,97072.06
2023-10-12T20:43:35.851Z,97073.69
2023-10-12T20:46:09.316Z,97065.31
2023-10-12T20:48:37.128Z,97071.00
2023-10-12T20:51:06.067Z,97081.69
2023-10-12T20:53:37.027Z,97085.72
2023-10-12T20:56:28.005Z,97079.66
2023-10-12T20:59:10.955Z,97088.88
2023-10-12T21:01:47.381Z,97095.25
2023-10-12T21:04:20.812Z,97098.00
2023-10-12T21:06:50.118Z,97101.72
2023-10-12T21:09:17.699Z,97099.72
2023-10-12T21:11:47.507Z,97099.53
2023-10-12T21:14:22.007Z,97100.19
2023-10-12T21:16:53.809Z,97082.59
2023-10-12T21:19:21.892Z,97089.63
2023-10-12T21:21:51.276Z,97095.97
2023-10-12T21:24:19.284Z,97092.28
2023-10-12T21:26:46.913Z,97095.56
2023-10-12T21:29:19.498Z,97102.41
2023-10-12T21:31:51.941Z,97095.91
2023-10-12T21:34:28.010Z,97096.09
2023-10-12T21:36:55.201Z,97099.56
2023-10-12T21:39:37.017Z,97090.91
2023-10-12T21:42:10.768Z,97092.94
2023-10-12T21:44:41.996Z,97098.03
2023-10-12T21:47:11.983Z,97092.25
2023-10-12T21:49:39.708Z,97090.84
2023-10-12T21:52:07.101Z,97091.06
2023-10-12T21:54:38.023Z,97090.66
2023-10-12T21:57:11.100Z,97098.47
2023-10-12T21:59:39.185Z,97096.84
